createdAt,value
2018-12-19T00:01:34.090Z,171.40
2018-12-19T00:04:02.993Z,167.10
2018-12-19T00:06:31.902Z,159.80
2018-12-19T00:09:03.345Z,164.87
2018-12-19T00:11:32.309Z,164.03
2018-12-19T00:14:01.406Z,164.00
2018-12-19T00:16:30.275Z,171.33
2018-12-19T00:18:59.198Z,161.43
2018-12-19T00:21:28.156Z,177.07
2018-12-19T00:23:57.172Z,174.63
2018-12-19T00:26:26.022Z,173.73
2018-12-19T00:28:54.902Z,164.60
2018-12-19T00:31:23.795Z,182.60
2018-12-19T00:33:53.062Z,180.87
2018-12-19T00:36:22.037Z,179.67
2018-12-19T00:38:54.978Z,185.17
2018-12-19T00:41:23.846Z,176.90
2018-12-19T00:43:52.800Z,171.60
2018-12-19T00:46:21.703Z,173.00
2018-12-19T00:48:50.963Z,171.30
2018-12-19T00:51:19.926Z,173.67
2018-12-19T00:53:48.994Z,171.37
2018-12-19T00:56:18.826Z,169.37
2018-12-19T00:58:47.707Z,174.67
2018-12-19T01:01:16.582Z,159.93
2018-12-19T01:03:45.451Z,176.83
2018-12-19T01:06:14.324Z,172.37
2018-12-19T01:08:43.266Z,168.37
2018-12-19T01:11:12.119Z,166.07
2018-12-19T01:13:45.513Z,169.20
2018-12-19T01:16:14.472Z,156.43
2018-12-19T01:18:43.373Z,160.00
2018-12-19T01:21:13.186Z,159.90
2018-12-19T01:23:42.020Z,160.70
2018-12-19T01:26:10.897Z,158.70
2018-12-19T01:28:40.109Z,153.97
2018-12-19T01:31:08.982Z,152.03
2018-12-19T01:33:37.851Z,158.80
2018-12-19T01:36:06.835Z,154.33
2018-12-19T01:38:35.765Z,144.77
2018-12-19T01:41:04.731Z,146.97
2018-12-19T01:43:33.602Z,143.50
2018-12-19T01:46:02.527Z,141.97
2018-12-19T01:48:31.522Z,144.83
2018-12-19T01:51:00.417Z,145.03
2018-12-19T01:53:29.310Z,145.77
2018-12-19T01:55:58.703Z,134.33
2018-12-19T01:58:28.531Z,137.33
2018-12-19T02:00:57.538Z,140.60
2018-12-19T02:03:26.434Z,141.17
2018-12-19T02:05:55.314Z,134.37
2018-12-19T02:08:24.199Z,134.70
2018-12-19T02:10:53.112Z,141.50
2018-12-19T02:13:21.987Z,133.20
2018-12-19T02:15:50.950Z,127.20
2018-12-19T02:18:19.827Z,133.77
2018-12-19T02:20:49.162Z,129.73
2018-12-19T02:23:18.011Z,130.87
2018-12-19T02:25:46.887Z,130.77
2018-12-19T02:28:15.722Z,125.30
2018-12-19T02:30:44.613Z,129.60
2018-12-19T02:33:13.518Z,130.47
2018-12-19T02:35:42.355Z,128.80
2018-12-19T02:38:11.214Z,124.13
2018-12-19T02:40:40.128Z,137.33
2018-12-19T02:43:09.041Z,127.00
2018-12-19T02:45:37.931Z,123.90
2018-12-19T02:48:06.805Z,120.10
2018-12-19T02:50:35.733Z,120.87
2018-12-19T02:53:04.651Z,123.83
2018-12-19T02:55:33.543Z,121.13
2018-12-19T02:58:02.462Z,124.90
2018-12-19T03:00:31.363Z,128.87
2018-12-19T03:03:00.237Z,128.23
2018-12-19T03:05:29.090Z,121.90
2018-12-19T03:07:57.957Z,119.83
2018-12-19T03:10:26.896Z,124.53
2018-12-19T03:12:55.785Z,122.03
2018-12-19T03:15:24.753Z,120.40
2018-12-19T03:17:53.714Z,120.87
2018-12-19T03:20:22.706Z,119.63
2018-12-19T03:22:51.842Z,126.87
2018-12-19T03:25:20.753Z,120.63
2018-12-19T03:27:49.585Z,126.63
2018-12-19T03:30:18.425Z,127.70
2018-12-19T03:32:47.281Z,126.20
2018-12-19T03:35:16.247Z,126.60
2018-12-19T03:37:45.172Z,129.23
2018-12-19T03:40:14.091Z,113.40
2018-12-19T03:42:43.055Z,118.67
2018-12-19T03:45:12.051Z,115.33
2018-12-19T03:47:41.052Z,111.27
2018-12-19T03:50:10.226Z,104.70
2018-12-19T03:52:39.104Z,109.77
2018-12-19T03:55:08.042Z,113.93
2018-12-19T03:57:37.095Z,102.53
2018-12-19T04:00:06.942Z,107.53
2018-12-19T04:02:35.798Z,107.30
2018-12-19T04:05:04.794Z,106.30
2018-12-19T04:07:33.709Z,100.17
2018-12-19T04:10:02.992Z,93.87
2018-12-19T04:12:31.821Z,101.83
2018-12-19T04:15:01.206Z,99.27
2018-12-19T04:17:30.142Z,94.97
2018-12-19T04:19:59.001Z,87.03
2018-12-19T04:22:27.826Z,88.27
2018-12-19T04:24:56.690Z,86.10
2018-12-19T04:27:25.551Z,95.30
2018-12-19T04:29:54.494Z,90.93
2018-12-19T04:32:23.546Z,95.87
2018-12-19T04:34:52.485Z,93.93
2018-12-19T04:37:21.432Z,92.17
2018-12-19T04:39:50.431Z,86.40
2018-12-19T04:42:19.331Z,87.60
2018-12-19T04:44:48.173Z,86.17
2018-12-19T04:47:17.130Z,87.33
2018-12-19T04:49:46.002Z,81.47
2018-12-19T04:52:14.906Z,81.30
2018-12-19T04:54:44.180Z,78.33
2018-12-19T04:57:13.135Z,83.87
2018-12-19T04:59:42.185Z,80.63
2018-12-19T05:02:11.089Z,80.27
2018-12-19T05:04:40.526Z,75.27
2018-12-19T05:07:09.425Z,81.73
2018-12-19T05:09:38.456Z,75.67
2018-12-19T05:12:07.267Z,76.80
2018-12-19T05:14:37.350Z,77.03
2018-12-19T05:17:07.167Z,75.20
2018-12-19T05:19:36.084Z,74.13
2018-12-19T05:22:04.974Z,75.30
2018-12-19T05:24:36.674Z,70.47
2018-12-19T05:27:05.526Z,76.77
2018-12-19T05:29:34.386Z,74.13
2018-12-19T05:32:03.352Z,80.43
2018-12-19T05:34:32.298Z,72.93
2018-12-19T05:37:02.224Z,66.70
2018-12-19T05:39:31.115Z,66.73
2018-12-19T05:42:00.062Z,65.83
2018-12-19T05:44:29.007Z,64.10
2018-12-19T05:46:57.868Z,60.73
2018-12-19T05:49:26.821Z,61.97
2018-12-19T05:51:55.678Z,56.40
2018-12-19T05:54:24.723Z,58.93
2018-12-19T05:56:55.622Z,60.60
2018-12-19T05:59:24.470Z,56.93
2018-12-19T06:02:01.390Z,58.87
2018-12-19T06:04:30.338Z,74.90
2018-12-19T06:06:59.354Z,57.73
2018-12-19T06:09:29.267Z,59.07
2018-12-19T06:11:58.142Z,64.07
2018-12-19T06:14:27.018Z,67.13
2018-12-19T06:16:56.046Z,64.57
2018-12-19T06:19:24.969Z,61.03
2018-12-19T06:21:54.970Z,63.20
2018-12-19T06:24:24.227Z,71.33
2018-12-19T06:26:53.287Z,75.20
2018-12-19T06:29:22.663Z,74.17
2018-12-19T06:31:51.808Z,86.47
2018-12-19T06:34:21.131Z,75.63
2018-12-19T06:36:50.447Z,75.13
2018-12-19T06:39:19.867Z,76.10
2018-12-19T06:41:49.429Z,96.93
2018-12-19T06:44:18.573Z,86.03
2018-12-19T06:46:47.878Z,120.63
2018-12-19T06:49:17.491Z,112.77
2018-12-19T06:51:46.823Z,65.90
2018-12-19T06:54:16.579Z,80.23
2018-12-19T06:56:49.256Z,75.37
2018-12-19T06:59:18.196Z,91.07
2018-12-19T07:01:47.190Z,88.37
2018-12-19T07:04:16.203Z,80.47
2018-12-19T07:06:45.167Z,80.10
2018-12-19T07:09:14.232Z,76.67
2018-12-19T07:11:43.290Z,81.13
2018-12-19T07:14:12.470Z,87.23
2018-12-19T07:16:43.526Z,83.90
2018-12-19T07:19:12.565Z,104.90
2018-12-19T07:21:41.730Z,108.43
2018-12-19T07:24:10.977Z,92.60
2018-12-19T07:26:40.634Z,91.23
2018-12-19T07:29:09.580Z,91.20
2018-12-19T07:31:40.742Z,89.13
2018-12-19T07:34:09.869Z,96.17
2018-12-19T07:36:38.806Z,107.07
2018-12-19T07:39:08.488Z,109.53
2018-12-19T07:41:37.495Z,79.40
2018-12-19T07:44:06.671Z,85.67
2018-12-19T07:46:36.539Z,76.07
2018-12-19T07:49:06.338Z,73.53
2018-12-19T07:51:35.418Z,69.10
2018-12-19T07:54:04.366Z,93.67
2018-12-19T07:56:33.351Z,92.40
2018-12-19T07:59:02.399Z,71.60
2018-12-19T08:01:31.347Z,72.13
2018-12-19T08:04:00.716Z,63.03
2018-12-19T08:06:29.711Z,82.23
2018-12-19T08:08:59.057Z,79.90
2018-12-19T08:11:28.065Z,69.17
2018-12-19T08:13:57.126Z,69.30
2018-12-19T08:16:26.078Z,65.63
2018-12-19T08:18:55.118Z,70.23
2018-12-19T08:21:24.079Z,61.13
2018-12-19T08:23:53.043Z,70.90
2018-12-19T08:26:22.022Z,81.67
2018-12-19T08:28:51.250Z,65.60
2018-12-19T08:31:21.211Z,71.30
2018-12-19T08:33:50.295Z,77.57
2018-12-19T08:36:19.351Z,75.90
2018-12-19T08:38:48.337Z,78.97
2018-12-19T08:41:17.294Z,79.80
2018-12-19T08:43:46.344Z,76.50
2018-12-19T08:46:15.411Z,72.03
2018-12-19T08:48:44.649Z,66.77
2018-12-19T08:51:14.348Z,92.33
2018-12-19T08:53:43.404Z,79.20
2018-12-19T08:56:12.474Z,93.13
2018-12-19T08:58:41.559Z,66.00
2018-12-19T09:01:10.580Z,68.00
2018-12-19T09:03:39.559Z,88.90
2018-12-19T09:06:08.839Z,81.53
2018-12-19T09:08:37.958Z,81.53
2018-12-19T09:11:07.036Z,69.37
2018-12-19T09:13:36.028Z,80.00
2018-12-19T09:16:05.192Z,74.87
2018-12-19T09:18:34.227Z,72.93
2018-12-19T09:21:03.186Z,63.33
2018-12-19T09:23:32.269Z,69.57
2018-12-19T09:26:01.247Z,67.87
2018-12-19T09:28:30.196Z,69.50
2018-12-19T09:30:59.168Z,66.03
2018-12-19T09:33:28.138Z,68.77
2018-12-19T09:35:57.090Z,70.00
2018-12-19T09:38:26.028Z,70.80
2018-12-19T09:40:54.969Z,66.73
2018-12-19T09:43:24.226Z,65.57
2018-12-19T09:45:53.859Z,61.60
2018-12-19T09:48:25.548Z,68.27
2018-12-19T09:50:54.540Z,62.47
2018-12-19T09:53:24.141Z,63.10
2018-12-19T09:55:53.118Z,66.37
2018-12-19T09:58:22.028Z,58.53
2018-12-19T10:00:50.974Z,63.20
2018-12-19T10:03:21.314Z,66.87
2018-12-19T10:05:50.422Z,67.50
2018-12-19T10:08:19.354Z,64.80
2018-12-19T10:10:48.357Z,58.60
2018-12-19T10:13:17.588Z,59.70
2018-12-19T10:15:46.750Z,61.13
2018-12-19T10:18:15.682Z,60.17
2018-12-19T10:20:44.731Z,73.17
2018-12-19T10:23:13.713Z,61.53
2018-12-19T10:25:42.696Z,59.50
2018-12-19T10:28:13.822Z,62.07
2018-12-19T10:30:47.816Z,63.37
2018-12-19T10:33:16.907Z,61.93
2018-12-19T10:35:45.983Z,69.27
2018-12-19T10:38:15.025Z,66.37
2018-12-19T10:40:44.076Z,71.57
2018-12-19T10:43:13.037Z,64.97
2018-12-19T10:45:42.167Z,69.27
2018-12-19T10:48:11.305Z,71.67
2018-12-19T10:51:02.165Z,62.93
2018-12-19T10:53:35.622Z,70.97
2018-12-19T10:56:05.046Z,57.83
2018-12-19T10:58:34.105Z,65.73
2018-12-19T11:01:03.819Z,65.73
2018-12-19T11:03:32.746Z,61.67
2018-12-19T11:06:01.796Z,64.57
2018-12-19T11:08:31.038Z,66.33
2018-12-19T11:11:00.035Z,60.93
2018-12-19T11:13:29.170Z,59.87
2018-12-19T11:15:58.049Z,64.50
2018-12-19T11:18:26.999Z,64.80
2018-12-19T11:20:55.902Z,64.33
2018-12-19T11:23:24.783Z,61.27
2018-12-19T11:25:53.794Z,60.93
2018-12-19T11:28:22.675Z,64.30
2018-12-19T11:30:51.527Z,66.17
2018-12-19T11:33:20.434Z,65.27
2018-12-19T11:35:49.362Z,72.10
2018-12-19T11:38:18.270Z,68.90
2018-12-19T11:40:47.184Z,69.20
2018-12-19T11:43:16.150Z,73.90
2018-12-19T11:45:45.086Z,71.33
2018-12-19T11:48:13.936Z,69.63
2018-12-19T11:50:42.823Z,70.37
2018-12-19T11:53:11.782Z,72.80
2018-12-19T11:55:40.841Z,79.33
2018-12-19T11:58:09.715Z,75.13
2018-12-19T12:00:41.735Z,80.30
2018-12-19T12:03:10.670Z,76.37
2018-12-19T12:05:39.528Z,78.80
2018-12-19T12:08:08.543Z,80.13
2018-12-19T12:10:37.578Z,80.93
2018-12-19T12:13:06.563Z,76.70
2018-12-19T12:15:35.501Z,78.33
2018-12-19T12:18:04.478Z,78.43
2018-12-19T12:20:33.557Z,78.03
2018-12-19T12:23:02.407Z,78.80
2018-12-19T12:25:31.299Z,76.37
2018-12-19T12:28:00.560Z,78.80
2018-12-19T12:30:29.479Z,79.17
2018-12-19T12:32:58.417Z,81.97
2018-12-19T12:35:27.306Z,80.57
2018-12-19T12:37:56.189Z,82.97
2018-12-19T12:40:25.086Z,83.10
2018-12-19T12:42:54.089Z,80.40
2018-12-19T12:45:23.122Z,78.77
2018-12-19T12:47:52.099Z,72.87
2018-12-19T12:50:21.001Z,83.40
2018-12-19T12:52:49.851Z,82.93
2018-12-19T12:55:19.785Z,79.27
2018-12-19T12:57:48.964Z,72.10
2018-12-19T13:00:17.955Z,75.30
2018-12-19T13:02:46.882Z,75.23
2018-12-19T13:05:15.828Z,74.83
2018-12-19T13:07:44.701Z,78.57
2018-12-19T13:10:13.550Z,75.63
2018-12-19T13:12:42.496Z,73.07
2018-12-19T13:15:13.500Z,70.13
2018-12-19T13:17:42.726Z,72.83
2018-12-19T13:20:11.702Z,72.47
2018-12-19T13:22:41.138Z,77.63
2018-12-19T13:25:10.152Z,68.23
2018-12-19T13:27:39.047Z,83.43
2018-12-19T13:30:09.566Z,78.77
2018-12-19T13:32:38.440Z,110.47
2018-12-19T13:35:07.561Z,71.57
2018-12-19T13:37:36.538Z,74.67
2018-12-19T13:40:08.693Z,65.63
2018-12-19T13:42:37.719Z,65.43
2018-12-19T13:45:07.916Z,72.60
2018-12-19T13:47:37.096Z,69.10
2018-12-19T13:50:07.111Z,78.13
2018-12-19T13:52:36.015Z,79.17
2018-12-19T13:55:05.415Z,79.60
2018-12-19T13:57:34.331Z,79.43
2018-12-19T14:00:03.323Z,80.70
2018-12-19T14:02:32.348Z,79.90
2018-12-19T14:05:01.335Z,91.90
2018-12-19T14:07:30.431Z,87.13
2018-12-19T14:09:59.817Z,96.13
2018-12-19T14:12:28.842Z,95.57
2018-12-19T14:14:57.923Z,92.80
2018-12-19T14:17:27.074Z,90.73
2018-12-19T14:19:56.082Z,75.17
2018-12-19T14:22:26.041Z,75.73
2018-12-19T14:24:55.091Z,77.77
2018-12-19T14:27:24.092Z,83.00
2018-12-19T14:29:53.238Z,80.93
2018-12-19T14:32:22.187Z,78.60
2018-12-19T14:34:52.146Z,77.57
2018-12-19T14:37:21.159Z,71.63
2018-12-19T14:39:50.186Z,76.80
2018-12-19T14:42:19.470Z,90.27
2018-12-19T14:44:48.523Z,80.47
2018-12-19T14:47:17.494Z,84.20
2018-12-19T14:49:46.786Z,90.37
2018-12-19T14:52:15.686Z,73.60
2018-12-19T14:54:44.973Z,92.10
2018-12-19T14:57:14.006Z,80.63
2018-12-19T14:59:42.932Z,75.77
2018-12-19T15:02:11.822Z,77.60
2018-12-19T15:04:40.812Z,77.00
2018-12-19T15:07:10.076Z,76.20
2018-12-19T15:09:39.014Z,74.23
2018-12-19T15:12:08.123Z,78.90
2018-12-19T15:14:37.088Z,73.57
2018-12-19T15:17:06.026Z,69.30
2018-12-19T15:19:35.088Z,61.80
2018-12-19T15:22:04.069Z,73.83
2018-12-19T15:24:32.993Z,66.67
2018-12-19T15:27:01.967Z,68.60
2018-12-19T15:29:30.887Z,64.80
2018-12-19T15:31:59.963Z,68.20
2018-12-19T15:34:28.904Z,69.90
2018-12-19T15:36:58.981Z,63.43
2018-12-19T15:39:28.078Z,62.80
2018-12-19T15:41:57.062Z,62.60
2018-12-19T15:44:26.013Z,63.10
2018-12-19T15:46:54.940Z,63.43
2018-12-19T15:49:23.850Z,64.73
2018-12-19T15:51:52.818Z,66.77
2018-12-19T15:54:21.714Z,66.83
2018-12-19T15:56:50.710Z,70.53
2018-12-19T15:59:19.689Z,69.37
2018-12-19T16:01:48.626Z,72.03
2018-12-19T16:04:17.528Z,68.17
2018-12-19T16:06:47.189Z,89.00
2018-12-19T16:09:16.154Z,83.73
2018-12-19T16:11:45.070Z,72.60
2018-12-19T16:14:14.007Z,64.07
2018-12-19T16:16:42.973Z,65.47
2018-12-19T16:19:12.020Z,64.77
2018-12-19T16:21:40.985Z,72.37
2018-12-19T16:24:09.898Z,76.47
2018-12-19T16:26:38.762Z,72.93
2018-12-19T16:29:07.679Z,70.97
2018-12-19T16:31:36.677Z,74.30
2018-12-19T16:34:05.634Z,89.07
2018-12-19T16:36:34.566Z,79.50
2018-12-19T16:39:04.994Z,72.93
2018-12-19T16:41:33.975Z,85.50
2018-12-19T16:44:03.878Z,74.37
2018-12-19T16:46:32.861Z,77.90
2018-12-19T16:49:01.806Z,75.00
2018-12-19T16:51:30.681Z,73.90
2018-12-19T16:53:59.638Z,70.90
2018-12-19T16:56:28.528Z,71.20
2018-12-19T16:58:57.614Z,75.67
2018-12-19T17:01:26.665Z,74.03
2018-12-19T17:03:56.182Z,76.87
2018-12-19T17:06:25.275Z,69.00
2018-12-19T17:08:54.682Z,64.90
2018-12-19T17:11:23.868Z,66.40
2018-12-19T17:13:52.814Z,64.70
2018-12-19T17:16:22.204Z,62.57
2018-12-19T17:18:51.506Z,67.80
2018-12-19T17:21:20.903Z,65.83
2018-12-19T17:23:50.167Z,73.67
2018-12-19T17:26:19.536Z,73.30
2018-12-19T17:28:51.478Z,83.50
2018-12-19T17:31:21.719Z,80.77
2018-12-19T17:33:51.107Z,75.40
2018-12-19T17:36:20.391Z,85.53
2018-12-19T17:38:49.774Z,85.27
2018-12-19T17:41:19.227Z,80.40
2018-12-19T17:43:48.661Z,76.50
2018-12-19T17:46:17.835Z,77.43
2018-12-19T17:48:47.099Z,80.87
2018-12-19T17:51:16.394Z,85.70
2018-12-19T17:53:45.638Z,90.03
2018-12-19T17:56:14.913Z,90.17
2018-12-19T17:58:44.307Z,82.27
2018-12-19T18:01:13.634Z,82.80
2018-12-19T18:03:43.049Z,84.20
2018-12-19T18:06:12.240Z,84.03
2018-12-19T18:08:41.511Z,79.33
2018-12-19T18:11:10.774Z,72.97
2018-12-19T18:13:40.575Z,71.47
2018-12-19T18:16:09.929Z,81.47
2018-12-19T18:18:39.392Z,83.83
2018-12-19T18:21:08.752Z,72.07
2018-12-19T18:23:38.039Z,81.43
2018-12-19T18:26:07.830Z,79.07
2018-12-19T18:28:37.258Z,87.13
2018-12-19T18:31:06.603Z,87.20
2018-12-19T18:33:35.978Z,84.93
2018-12-19T18:36:05.289Z,83.40
2018-12-19T18:38:34.719Z,82.63
2018-12-19T18:41:04.923Z,87.53
2018-12-19T18:43:34.413Z,80.87
2018-12-19T18:46:03.787Z,80.03
2018-12-19T18:48:33.402Z,89.40
2018-12-19T18:51:02.720Z,83.23
2018-12-19T18:53:32.146Z,85.00
2018-12-19T18:56:01.674Z,82.73
2018-12-19T18:58:31.141Z,88.50
2018-12-19T19:01:00.576Z,88.93
2018-12-19T19:03:30.131Z,87.53
2018-12-19T19:05:59.632Z,92.00
2018-12-19T19:08:29.226Z,89.87
2018-12-19T19:10:58.817Z,88.97
2018-12-19T19:13:28.706Z,87.97
2018-12-19T19:15:58.154Z,95.47
2018-12-19T19:18:27.742Z,97.43
2018-12-19T19:20:57.254Z,93.83
2018-12-19T19:23:26.771Z,95.17
2018-12-19T19:25:56.891Z,93.83
2018-12-19T19:28:26.402Z,79.67
2018-12-19T19:30:56.591Z,75.33
2018-12-19T19:33:26.278Z,79.27
2018-12-19T19:35:55.817Z,75.83
2018-12-19T19:38:25.322Z,83.60
2018-12-19T19:40:54.847Z,85.83
2018-12-19T19:43:26.662Z,77.63
2018-12-19T19:45:55.890Z,82.90
2018-12-19T19:48:25.352Z,76.20
2018-12-19T19:50:54.823Z,86.13
2018-12-19T19:53:24.364Z,81.30
2018-12-19T19:55:53.883Z,79.90
2018-12-19T19:58:23.553Z,76.20
2018-12-19T20:00:53.055Z,81.13
2018-12-19T20:03:23.908Z,79.27
2018-12-19T20:05:53.466Z,74.77
2018-12-19T20:08:22.939Z,79.33
2018-12-19T20:10:52.517Z,84.37
2018-12-19T20:13:22.008Z,81.60
2018-12-19T20:15:51.446Z,92.27
2018-12-19T20:18:21.061Z,86.90
2018-12-19T20:20:50.624Z,90.53
2018-12-19T20:23:20.278Z,91.10
2018-12-19T20:25:50.451Z,88.23
2018-12-19T20:28:20.017Z,81.03
2018-12-19T20:31:01.284Z,83.83
2018-12-19T20:33:30.781Z,85.50
2018-12-19T20:36:00.362Z,77.47
2018-12-19T20:38:29.895Z,82.23
2018-12-19T20:40:59.363Z,87.33
2018-12-19T20:43:29.018Z,84.03
2018-12-19T20:45:58.687Z,91.23
2018-12-19T20:48:28.191Z,89.03
2018-12-19T20:50:57.755Z,77.53
2018-12-19T20:53:27.873Z,89.17
2018-12-19T20:56:03.591Z,86.87
2018-12-19T20:58:29.743Z,79.60
2018-12-19T21:00:59.317Z,88.80
2018-12-19T21:03:28.707Z,83.87
2018-12-19T21:05:58.308Z,80.67
2018-12-19T21:08:27.746Z,80.27
2018-12-19T21:10:57.346Z,76.13
2018-12-19T21:13:26.904Z,78.23
2018-12-19T21:15:56.325Z,74.77
2018-12-19T21:18:30.940Z,76.67
2018-12-19T21:21:00.605Z,80.13
2018-12-19T21:23:30.975Z,77.83
2018-12-19T21:26:00.555Z,79.70
2018-12-19T21:28:30.330Z,77.43
2018-12-19T21:30:59.838Z,77.60
2018-12-19T21:33:29.191Z,76.10
2018-12-19T21:35:58.593Z,79.07
2018-12-19T21:38:27.947Z,73.93
2018-12-19T21:40:57.329Z,78.60
2018-12-19T21:43:26.719Z,83.40
2018-12-19T21:45:55.860Z,83.03
2018-12-19T21:48:24.766Z,78.63
2018-12-19T21:51:01.741Z,74.33
2018-12-19T21:53:30.697Z,79.73
2018-12-19T21:55:59.682Z,78.00
2018-12-19T21:58:28.736Z,74.27
2018-12-19T22:00:57.862Z,77.03
2018-12-19T22:03:26.932Z,77.20
2018-12-19T22:05:56.053Z,81.43
2018-12-19T22:08:25.031Z,74.50
2018-12-19T22:10:53.978Z,85.83
2018-12-19T22:13:23.824Z,79.73
2018-12-19T22:15:52.760Z,83.03
2018-12-19T22:18:27.025Z,81.27
2018-12-19T22:20:56.033Z,80.43
2018-12-19T22:23:25.140Z,78.03
2018-12-19T22:25:54.051Z,76.87
2018-12-19T22:28:22.973Z,72.97
2018-12-19T22:30:52.086Z,77.97
2018-12-19T22:33:21.104Z,81.07
2018-12-19T22:35:50.184Z,72.77
2018-12-19T22:38:19.159Z,74.83
2018-12-19T22:40:48.040Z,77.20
2018-12-19T22:43:16.991Z,73.90
2018-12-19T22:45:45.919Z,77.93
2018-12-19T22:48:15.415Z,70.10
2018-12-19T22:50:44.438Z,68.37
2018-12-19T22:53:13.369Z,71.37
2018-12-19T22:55:42.335Z,68.80
2018-12-19T22:58:11.515Z,70.00
2018-12-19T23:00:45.751Z,73.77
2018-12-19T23:03:14.931Z,69.50
2018-12-19T23:05:49.079Z,66.10
2018-12-19T23:08:18.090Z,66.60
2018-12-19T23:10:47.275Z,77.00
2018-12-19T23:13:16.283Z,68.80
2018-12-19T23:15:45.371Z,64.30
2018-12-19T23:18:19.492Z,67.37
2018-12-19T23:20:48.517Z,62.57
2018-12-19T23:23:17.370Z,67.17
2018-12-19T23:25:46.331Z,61.50
2018-12-19T23:28:15.326Z,68.73
2018-12-19T23:30:48.266Z,63.27
2018-12-19T23:33:17.364Z,61.30
2018-12-19T23:35:46.323Z,64.67
2018-12-19T23:38:15.335Z,66.57
2018-12-19T23:40:44.235Z,68.10
2018-12-19T23:43:13.253Z,67.77
2018-12-19T23:45:42.246Z,63.50
2018-12-19T23:48:11.329Z,59.17
2018-12-19T23:50:40.330Z,58.73
2018-12-19T23:53:09.400Z,61.50
2018-12-19T23:55:40.238Z,62.30
2018-12-19T23:58:09.202Z,63.60
